createdAt,value
2022-09-20T00:00:11.217Z,0.00
2022-09-20T00:01:11.301Z,0.00
2022-09-20T00:02:11.197Z,0.00
2022-09-20T00:03:11.211Z,0.00
2022-09-20T00:04:11.330Z,0.00
2022-09-20T00:05:11.277Z,0.00
2022-09-20T00:06:11.153Z,0.00
2022-09-20T00:07:11.126Z,0.00
2022-09-20T00:08:11.134Z,0.00
2022-09-20T00:09:11.153Z,0.00
2022-09-20T00:10:11.106Z,0.00
2022-09-20T00:11:11.094Z,0.00
2022-09-20T00:12:11.086Z,0.00
2022-09-20T00:13:11.067Z,0.00
2022-09-20T00:14:11.078Z,0.00
2022-09-20T00:15:11.059Z,0.00
2022-09-20T00:16:11.077Z,0.00
2022-09-20T00:17:11.030Z,0.00
2022-09-20T00:18:11.018Z,0.00
2022-09-20T00:19:10.995Z,0.00
2022-09-20T00:20:11.007Z,0.00
2022-09-20T00:21:10.974Z,0.00
2022-09-20T00:22:10.966Z,0.00
2022-09-20T00:23:10.954Z,0.00
2022-09-20T00:24:11.470Z,0.00
2022-09-20T00:25:10.939Z,0.00
2022-09-20T00:26:10.926Z,0.00
2022-09-20T00:27:10.918Z,0.00
2022-09-20T00:28:10.899Z,0.00
2022-09-20T00:29:10.875Z,0.00
2022-09-20T00:30:10.907Z,0.00
2022-09-20T00:31:10.858Z,0.00
2022-09-20T00:32:10.945Z,0.00
2022-09-20T00:33:10.846Z,0.00
2022-09-20T00:34:10.838Z,0.00
2022-09-20T00:35:10.820Z,0.00
2022-09-20T00:36:10.818Z,0.00
2022-09-20T00:37:10.799Z,0.00
2022-09-20T00:38:10.786Z,0.00
2022-09-20T00:39:10.767Z,0.00
2022-09-20T00:40:10.840Z,0.00
2022-09-20T00:41:10.774Z,0.00
2022-09-20T00:42:10.758Z,0.00
2022-09-20T00:43:10.719Z,0.00
2022-09-20T00:44:10.755Z,0.00
2022-09-20T00:45:10.698Z,0.00
2022-09-20T00:46:10.780Z,0.00
2022-09-20T00:47:10.687Z,0.00
2022-09-20T00:48:10.667Z,0.00
2022-09-20T00:49:10.658Z,0.00
2022-09-20T00:50:10.646Z,0.00
2022-09-20T00:51:10.658Z,0.00
2022-09-20T00:52:10.647Z,0.00
2022-09-20T00:53:10.598Z,0.00
2022-09-20T00:54:10.620Z,0.00
2022-09-20T00:55:10.595Z,0.00
2022-09-20T00:56:10.578Z,0.00
2022-09-20T00:57:10.587Z,0.00
2022-09-20T00:58:10.558Z,0.00
2022-09-20T00:59:10.538Z,0.00
2022-09-20T01:00:10.532Z,0.00
2022-09-20T01:01:10.579Z,0.00
2022-09-20T01:02:10.549Z,0.00
2022-09-20T01:03:10.563Z,0.00
2022-09-20T01:04:10.546Z,0.00
2022-09-20T01:05:10.477Z,0.00
2022-09-20T01:06:10.474Z,0.00
2022-09-20T01:07:10.447Z,0.00
2022-09-20T01:08:10.482Z,0.00
2022-09-20T01:09:10.459Z,0.00
2022-09-20T01:10:10.419Z,0.00
2022-09-20T01:11:10.408Z,0.00
2022-09-20T01:12:10.399Z,0.00
2022-09-20T01:13:10.370Z,0.00
2022-09-20T01:14:10.403Z,0.00
2022-09-20T01:15:10.359Z,0.00
2022-09-20T01:16:10.378Z,0.00
2022-09-20T01:17:10.333Z,0.00
2022-09-20T01:18:10.420Z,0.00
2022-09-20T01:19:10.307Z,0.00
2022-09-20T01:20:10.309Z,0.00
2022-09-20T01:21:10.305Z,0.00
2022-09-20T01:22:10.287Z,0.00
2022-09-20T01:23:10.266Z,0.00
2022-09-20T01:24:10.279Z,0.00
2022-09-20T01:25:10.260Z,0.00
2022-09-20T01:26:10.279Z,0.00
2022-09-20T01:27:10.267Z,0.00
2022-09-20T01:28:10.300Z,0.00
2022-09-20T01:29:10.299Z,0.00
2022-09-20T01:30:10.342Z,0.00
2022-09-20T01:31:10.344Z,0.00
2022-09-20T01:32:10.396Z,0.00
2022-09-20T01:33:10.359Z,0.00
2022-09-20T01:34:10.388Z,0.00
2022-09-20T01:35:10.456Z,0.00
2022-09-20T01:36:10.435Z,0.00
2022-09-20T01:37:10.453Z,0.00
2022-09-20T01:38:10.519Z,0.00
2022-09-20T01:39:10.387Z,0.00
2022-09-20T01:40:10.705Z,0.00
2022-09-20T01:41:10.432Z,0.00
2022-09-20T01:42:10.501Z,0.00
2022-09-20T01:43:10.452Z,0.00
2022-09-20T01:44:10.107Z,0.00
2022-09-20T01:45:10.739Z,0.00
2022-09-20T01:46:10.116Z,0.00
2022-09-20T01:47:10.007Z,0.00
2022-09-20T01:48:10.464Z,0.00
2022-09-20T01:49:10.327Z,0.00
2022-09-20T01:50:10.016Z,0.00
2022-09-20T01:51:09.975Z,0.00
2022-09-20T01:52:09.939Z,0.00
2022-09-20T01:53:10.784Z,0.00
2022-09-20T01:54:09.911Z,0.00
2022-09-20T01:55:09.911Z,0.00
2022-09-20T01:56:09.911Z,0.00
2022-09-20T01:57:09.892Z,0.00
2022-09-20T01:58:09.871Z,0.00
2022-09-20T01:59:23.575Z,0.00
2022-09-20T02:00:10.876Z,0.00
2022-09-20T02:01:09.856Z,0.00
2022-09-20T02:02:09.921Z,0.00
2022-09-20T02:03:09.828Z,0.00
2022-09-20T02:04:09.799Z,0.00
2022-09-20T02:05:09.792Z,0.00
2022-09-20T02:06:09.772Z,0.00
2022-09-20T02:07:09.780Z,0.00
2022-09-20T02:08:09.788Z,0.00
2022-09-20T02:09:09.752Z,0.00
2022-09-20T02:10:09.735Z,0.00
2022-09-20T02:11:09.732Z,0.00
2022-09-20T02:12:09.712Z,0.00
2022-09-20T02:13:09.892Z,0.00
2022-09-20T02:14:09.712Z,0.00
2022-09-20T02:15:09.689Z,0.00
2022-09-20T02:16:09.694Z,0.00
2022-09-20T02:17:09.681Z,0.00
2022-09-20T02:18:09.644Z,0.00
2022-09-20T02:19:09.664Z,0.00
2022-09-20T02:20:09.621Z,0.00
2022-09-20T02:21:09.622Z,0.00
2022-09-20T02:22:09.592Z,0.00
2022-09-20T02:23:09.674Z,0.00
2022-09-20T02:24:09.572Z,0.00
2022-09-20T02:25:09.586Z,0.00
2022-09-20T02:26:09.552Z,0.00
2022-09-20T02:27:09.561Z,0.00
2022-09-20T02:28:09.533Z,0.00
2022-09-20T02:29:09.522Z,0.00
2022-09-20T02:30:09.540Z,0.00
2022-09-20T02:31:09.504Z,0.00
2022-09-20T02:32:09.505Z,0.00
2022-09-20T02:33:09.741Z,0.00
2022-09-20T02:34:09.461Z,0.00
2022-09-20T02:35:09.485Z,0.00
2022-09-20T02:36:09.449Z,0.00
2022-09-20T02:37:09.432Z,0.00
2022-09-20T02:38:09.420Z,0.00
2022-09-20T02:39:09.441Z,0.00
2022-09-20T02:40:09.434Z,0.00
2022-09-20T02:41:09.394Z,0.00
2022-09-20T02:42:09.364Z,0.00
2022-09-20T02:43:09.374Z,0.00
2022-09-20T02:44:09.345Z,0.00
2022-09-20T02:45:09.364Z,0.00
2022-09-20T02:46:09.422Z,0.00
2022-09-20T02:47:09.320Z,0.00
2022-09-20T02:48:09.317Z,0.00
2022-09-20T02:49:09.303Z,0.00
2022-09-20T02:50:09.305Z,0.00
2022-09-20T02:51:09.302Z,0.00
2022-09-20T02:52:09.260Z,0.00
2022-09-20T02:53:09.764Z,0.00
2022-09-20T02:54:09.224Z,0.00
2022-09-20T02:55:09.244Z,0.00
2022-09-20T02:56:09.220Z,0.00
2022-09-20T02:57:09.249Z,0.00
2022-09-20T02:58:09.185Z,0.00
2022-09-20T02:59:09.185Z,0.00
2022-09-20T03:00:09.185Z,0.00
2022-09-20T03:01:09.271Z,0.00
2022-09-20T03:02:09.237Z,0.00
2022-09-20T03:03:09.187Z,0.00
2022-09-20T03:04:09.133Z,0.00
2022-09-20T03:05:09.221Z,0.00
2022-09-20T03:06:09.228Z,0.00
2022-09-20T03:07:09.288Z,0.00
2022-09-20T03:08:09.234Z,0.00
2022-09-20T03:09:09.162Z,0.00
2022-09-20T03:10:09.181Z,0.00
2022-09-20T03:11:09.275Z,0.00
2022-09-20T03:12:09.121Z,0.00
2022-09-20T03:13:09.213Z,0.00
2022-09-20T03:14:09.293Z,0.00
2022-09-20T03:15:09.027Z,0.00
2022-09-20T03:16:09.049Z,0.00
2022-09-20T03:17:09.226Z,0.00
2022-09-20T03:18:09.193Z,0.00
2022-09-20T03:19:08.956Z,0.00
2022-09-20T03:20:08.969Z,0.00
2022-09-20T03:21:08.941Z,0.00
2022-09-20T03:22:08.945Z,0.00
2022-09-20T03:23:08.913Z,0.00
2022-09-20T03:24:08.901Z,0.00
2022-09-20T03:25:08.890Z,0.00
2022-09-20T03:26:08.897Z,0.00
2022-09-20T03:27:08.875Z,0.00
2022-09-20T03:28:08.882Z,0.00
2022-09-20T03:29:08.927Z,0.00
2022-09-20T03:30:08.833Z,0.00
2022-09-20T03:31:08.828Z,0.00
2022-09-20T03:32:08.831Z,0.00
2022-09-20T03:33:08.805Z,0.00
2022-09-20T03:34:08.804Z,0.00
2022-09-20T03:35:08.791Z,0.00
2022-09-20T03:36:08.774Z,0.00
2022-09-20T03:37:08.755Z,0.00
2022-09-20T03:38:08.734Z,0.00
2022-09-20T03:39:08.777Z,0.00
2022-09-20T03:40:08.732Z,0.00
2022-09-20T03:41:08.718Z,0.00
2022-09-20T03:42:08.699Z,0.00
2022-09-20T03:43:08.686Z,0.00
2022-09-20T03:44:08.726Z,0.00
2022-09-20T03:45:08.674Z,0.00
2022-09-20T03:46:08.656Z,0.00
2022-09-20T03:47:08.634Z,0.00
2022-09-20T03:48:08.617Z,0.00
2022-09-20T03:49:08.625Z,0.00
2022-09-20T03:50:08.606Z,0.00
2022-09-20T03:51:08.609Z,0.00
2022-09-20T03:52:08.574Z,0.00
2022-09-20T03:53:08.586Z,0.00
2022-09-20T03:54:08.597Z,0.00
2022-09-20T03:55:08.556Z,0.00
2022-09-20T03:56:08.535Z,0.00
2022-09-20T03:57:08.534Z,0.00
2022-09-20T03:58:09.117Z,0.00
2022-09-20T03:59:08.585Z,0.00
2022-09-20T04:00:08.506Z,0.00
2022-09-20T04:01:08.590Z,0.00
2022-09-20T04:02:08.502Z,0.00
2022-09-20T04:03:08.466Z,0.00
2022-09-20T04:04:08.438Z,0.00
2022-09-20T04:05:08.455Z,0.00
2022-09-20T04:06:08.426Z,0.00
2022-09-20T04:07:08.430Z,0.00
2022-09-20T04:08:08.406Z,0.00
2022-09-20T04:09:08.406Z,0.00
2022-09-20T04:10:08.518Z,0.00
2022-09-20T04:11:08.388Z,0.00
2022-09-20T04:12:08.379Z,0.00
2022-09-20T04:13:08.358Z,0.00
2022-09-20T04:14:11.422Z,0.00
2022-09-20T04:15:08.367Z,0.00
2022-09-20T04:16:08.418Z,0.00
2022-09-20T04:17:08.326Z,0.00
2022-09-20T04:18:08.314Z,0.00
2022-09-20T04:19:08.289Z,0.00
2022-09-20T04:20:08.275Z,0.00
2022-09-20T04:21:08.279Z,0.00
2022-09-20T04:22:08.880Z,0.00
2022-09-20T04:23:08.238Z,0.00
2022-09-20T04:24:08.221Z,0.00
2022-09-20T04:25:08.227Z,0.00
2022-09-20T04:26:08.208Z,0.00
2022-09-20T04:27:08.198Z,0.00
2022-09-20T04:28:08.171Z,0.00
2022-09-20T04:29:08.267Z,0.00
2022-09-20T04:30:08.188Z,0.00
2022-09-20T04:31:08.226Z,0.00
2022-09-20T04:32:08.207Z,0.00
2022-09-20T04:33:08.118Z,0.00
2022-09-20T04:34:08.123Z,0.00
2022-09-20T04:35:08.110Z,0.00
2022-09-20T04:36:08.086Z,0.00
2022-09-20T04:37:08.079Z,0.00
2022-09-20T04:38:08.067Z,0.00
2022-09-20T04:39:08.106Z,0.00
2022-09-20T04:40:08.095Z,0.00
2022-09-20T04:41:08.038Z,0.00
2022-09-20T04:42:08.206Z,0.00
2022-09-20T04:43:08.103Z,0.00
2022-09-20T04:44:08.036Z,0.00
2022-09-20T04:45:07.995Z,0.00
2022-09-20T04:46:08.038Z,0.00
2022-09-20T04:47:08.013Z,4.00
2022-09-20T04:48:07.950Z,4.00
2022-09-20T04:49:07.954Z,4.00
2022-09-20T04:50:07.923Z,0.00
2022-09-20T04:51:07.941Z,4.00
2022-09-20T04:52:07.918Z,4.00
2022-09-20T04:53:07.923Z,4.00
2022-09-20T04:54:07.870Z,4.00
2022-09-20T04:55:07.878Z,8.00
2022-09-20T04:56:07.850Z,4.00
2022-09-20T04:57:07.863Z,8.00
2022-09-20T04:58:07.830Z,8.00
2022-09-20T04:59:08.107Z,4.00
2022-09-20T05:00:07.834Z,8.00
2022-09-20T05:01:07.866Z,12.00
2022-09-20T05:02:08.181Z,12.00
2022-09-20T05:03:07.791Z,12.00
2022-09-20T05:04:07.761Z,12.00
2022-09-20T05:05:07.770Z,16.00
2022-09-20T05:06:07.751Z,20.00
2022-09-20T05:07:07.758Z,20.00
2022-09-20T05:08:07.739Z,20.00
2022-09-20T05:09:07.710Z,24.00
2022-09-20T05:10:07.711Z,28.00
2022-09-20T05:11:07.718Z,32.00
2022-09-20T05:12:07.680Z,36.00
2022-09-20T05:13:07.706Z,44.00
2022-09-20T05:14:07.647Z,44.00
2022-09-20T05:15:07.674Z,52.00
2022-09-20T05:16:07.670Z,56.00
2022-09-20T05:17:07.696Z,68.00
2022-09-20T05:18:07.611Z,72.00
2022-09-20T05:19:07.602Z,80.00
2022-09-20T05:20:07.590Z,84.00
2022-09-20T05:21:07.610Z,96.00
2022-09-20T05:22:07.751Z,104.00
2022-09-20T05:23:07.578Z,112.00
2022-09-20T05:24:09.548Z,116.00
2022-09-20T05:25:07.543Z,124.00
2022-09-20T05:26:07.510Z,132.00
2022-09-20T05:27:07.519Z,140.00
2022-09-20T05:28:07.523Z,148.00
2022-09-20T05:29:07.479Z,156.00
2022-09-20T05:30:07.481Z,164.00
2022-09-20T05:31:07.483Z,172.00
2022-09-20T05:32:07.508Z,176.00
2022-09-20T05:33:07.459Z,188.00
2022-09-20T05:34:07.423Z,196.00
2022-09-20T05:35:07.423Z,200.00
2022-09-20T05:36:07.412Z,208.00
2022-09-20T05:37:07.403Z,220.00
2022-09-20T05:38:07.399Z,228.00
2022-09-20T05:39:07.391Z,240.00
2022-09-20T05:40:07.510Z,252.00
2022-09-20T05:41:07.353Z,256.00
2022-09-20T05:42:07.335Z,268.00
2022-09-20T05:43:07.349Z,276.00
2022-09-20T05:44:07.356Z,288.00
2022-09-20T05:45:07.330Z,296.00
2022-09-20T05:46:07.360Z,308.00
2022-09-20T05:47:07.285Z,320.00
2022-09-20T05:48:07.283Z,324.00
2022-09-20T05:49:07.267Z,336.00
2022-09-20T05:50:07.232Z,348.00
2022-09-20T05:51:07.240Z,356.00
2022-09-20T05:52:07.231Z,364.00
2022-09-20T05:53:07.275Z,368.00
2022-09-20T05:54:07.180Z,376.00
2022-09-20T05:55:07.191Z,380.00
2022-09-20T05:56:07.164Z,392.00
2022-09-20T05:57:07.172Z,396.00
2022-09-20T05:58:07.171Z,404.00
2022-09-20T05:59:09.613Z,412.00
2022-09-20T06:00:07.163Z,416.00
2022-09-20T06:01:07.209Z,428.00
2022-09-20T06:02:07.174Z,436.00
2022-09-20T06:03:07.099Z,440.00
2022-09-20T06:04:07.120Z,452.00
2022-09-20T06:05:07.095Z,460.00
2022-09-20T06:06:07.079Z,468.00
2022-09-20T06:07:07.052Z,480.00
2022-09-20T06:08:07.051Z,496.00
2022-09-20T06:09:07.025Z,512.00
2022-09-20T06:10:07.035Z,528.00
2022-09-20T06:11:07.448Z,540.00
2022-09-20T06:12:07.060Z,548.00
2022-09-20T06:13:07.063Z,548.00
2022-09-20T06:14:07.274Z,556.00
2022-09-20T06:15:07.131Z,560.00
2022-09-20T06:16:07.213Z,564.00
2022-09-20T06:17:07.249Z,572.00
2022-09-20T06:18:07.285Z,584.00
2022-09-20T06:19:06.916Z,596.00
2022-09-20T06:20:06.902Z,612.00
2022-09-20T06:21:06.891Z,624.00
2022-09-20T06:22:06.931Z,640.00
2022-09-20T06:23:06.872Z,668.00
2022-09-20T06:24:06.880Z,712.00
2022-09-20T06:25:06.839Z,776.00
2022-09-20T06:26:06.842Z,856.00
2022-09-20T06:27:06.823Z,924.00
2022-09-20T06:28:06.812Z,980.00
2022-09-20T06:29:06.905Z,1016.00
2022-09-20T06:30:06.792Z,1048.00
2022-09-20T06:31:06.824Z,1064.00
2022-09-20T06:32:06.832Z,1088.00
2022-09-20T06:33:06.753Z,1124.00
2022-09-20T06:34:06.774Z,1124.00
2022-09-20T06:35:06.744Z,1108.00
2022-09-20T06:36:06.720Z,1084.00
2022-09-20T06:37:06.704Z,1044.00
2022-09-20T06:38:06.724Z,1020.00
2022-09-20T06:39:06.684Z,992.00
2022-09-20T06:40:06.709Z,968.00
2022-09-20T06:41:06.672Z,964.00
2022-09-20T06:42:06.660Z,944.00
2022-09-20T06:43:06.676Z,908.00
2022-09-20T06:44:06.710Z,868.00
2022-09-20T06:45:06.628Z,820.00
2022-09-20T06:46:06.662Z,804.00
2022-09-20T06:47:06.593Z,784.00
2022-09-20T06:48:06.605Z,768.00
2022-09-20T06:49:06.596Z,740.00
2022-09-20T06:50:06.604Z,724.00
2022-09-20T06:51:06.572Z,724.00
2022-09-20T06:52:06.545Z,740.00
2022-09-20T06:53:06.514Z,744.00
2022-09-20T06:54:06.544Z,740.00
2022-09-20T06:55:06.504Z,736.00
2022-09-20T06:56:06.504Z,748.00
2022-09-20T06:57:06.485Z,752.00
2022-09-20T06:58:06.472Z,756.00
2022-09-20T06:59:06.601Z,760.00
2022-09-20T07:00:06.456Z,772.00
2022-09-20T07:01:06.511Z,780.00
2022-09-20T07:02:06.467Z,776.00
2022-09-20T07:03:06.444Z,780.00
2022-09-20T07:04:06.437Z,784.00
2022-09-20T07:05:06.397Z,800.00
2022-09-20T07:06:06.414Z,816.00
2022-09-20T07:07:09.471Z,840.00
2022-09-20T07:08:06.364Z,860.00
2022-09-20T07:09:06.364Z,876.00
2022-09-20T07:10:06.396Z,884.00
2022-09-20T07:11:06.340Z,888.00
2022-09-20T07:12:06.324Z,900.00
2022-09-20T07:13:06.306Z,908.00
2022-09-20T07:14:06.448Z,916.00
2022-09-20T07:15:06.308Z,924.00
2022-09-20T07:16:06.467Z,928.00
2022-09-20T07:17:06.256Z,936.00
2022-09-20T07:18:06.245Z,952.00
2022-09-20T07:19:06.236Z,960.00
2022-09-20T07:20:06.255Z,972.00
2022-09-20T07:21:06.217Z,984.00
2022-09-20T07:22:06.232Z,1004.00
2022-09-20T07:23:06.188Z,1028.00
2022-09-20T07:24:06.188Z,1044.00
2022-09-20T07:25:06.166Z,1060.00
2022-09-20T07:26:06.177Z,1072.00
2022-09-20T07:27:06.152Z,1096.00
2022-09-20T07:28:06.145Z,1108.00
2022-09-20T07:29:06.222Z,1124.00
2022-09-20T07:30:06.130Z,1148.00
2022-09-20T07:31:06.155Z,1172.00
2022-09-20T07:32:06.113Z,1188.00
2022-09-20T07:33:06.077Z,1208.00
2022-09-20T07:34:06.094Z,1220.00
2022-09-20T07:35:06.098Z,1248.00
2022-09-20T07:36:06.053Z,1276.00
2022-09-20T07:37:06.036Z,1296.00
2022-09-20T07:38:06.045Z,1304.00
2022-09-20T07:39:06.012Z,1316.00
2022-09-20T07:40:06.035Z,1328.00
2022-09-20T07:41:06.046Z,1332.00
2022-09-20T07:42:05.994Z,1336.00
2022-09-20T07:43:05.981Z,1336.00
2022-09-20T07:44:06.078Z,1348.00
2022-09-20T07:45:05.961Z,1360.00
2022-09-20T07:46:06.000Z,1376.00
2022-09-20T07:47:05.925Z,1404.00
2022-09-20T07:48:05.910Z,1432.00
2022-09-20T07:49:05.897Z,1496.00
2022-09-20T07:50:05.897Z,1588.00
2022-09-20T07:51:08.779Z,1592.00
2022-09-20T07:52:05.886Z,1532.00
2022-09-20T07:53:05.845Z,1512.00
2022-09-20T07:54:05.846Z,1484.00
2022-09-20T07:55:05.853Z,1440.00
2022-09-20T07:56:05.826Z,1388.00
2022-09-20T07:57:05.859Z,1328.00
2022-09-20T07:58:05.805Z,1268.00
2022-09-20T07:59:05.900Z,1240.00
2022-09-20T08:00:05.791Z,1208.00
2022-09-20T08:01:05.863Z,1208.00
2022-09-20T08:02:05.820Z,1196.00
2022-09-20T08:03:05.866Z,1180.00
2022-09-20T08:04:05.885Z,1176.00
2022-09-20T08:05:05.906Z,1184.00
2022-09-20T08:06:05.946Z,1200.00
2022-09-20T08:07:05.854Z,1220.00
2022-09-20T08:08:06.005Z,1236.00
2022-09-20T08:09:10.196Z,1248.00
2022-09-20T08:10:06.657Z,1248.00
2022-09-20T08:11:05.649Z,1244.00
2022-09-20T08:14:17.363Z,1148.00
2022-09-20T08:15:09.739Z,1112.00
2022-09-20T08:16:06.594Z,1096.00
2022-09-20T08:17:05.617Z,1072.00
2022-09-20T08:18:05.590Z,1040.00
2022-09-20T08:19:05.558Z,1012.00
2022-09-20T08:20:05.561Z,1004.00
2022-09-20T08:21:05.550Z,996.00
2022-09-20T08:22:05.538Z,988.00
2022-09-20T08:23:22.647Z,976.00
2022-09-20T08:24:06.500Z,964.00
2022-09-20T08:25:05.494Z,952.00
2022-09-20T08:26:07.716Z,936.00
2022-09-20T08:27:05.482Z,920.00
2022-09-20T08:28:05.458Z,908.00
2022-09-20T08:29:05.575Z,884.00
2022-09-20T08:30:05.446Z,884.00
2022-09-20T08:31:05.418Z,920.00
2022-09-20T08:32:05.447Z,924.00
2022-09-20T08:33:05.390Z,976.00
2022-09-20T08:34:05.390Z,1056.00
2022-09-20T08:35:05.370Z,1016.00
2022-09-20T08:36:05.391Z,1116.00
2022-09-20T08:37:05.358Z,1232.00
2022-09-20T08:40:06.419Z,1264.00
2022-09-20T08:41:05.298Z,1260.00
2022-09-20T08:42:05.334Z,1256.00
2022-09-20T08:43:05.518Z,1244.00
2022-09-20T08:44:05.402Z,1200.00
2022-09-20T08:45:05.259Z,1288.00
2022-09-20T08:46:05.690Z,1296.00
2022-09-20T08:47:05.250Z,1308.00
2022-09-20T08:48:05.230Z,1316.00
2022-09-20T08:49:05.527Z,1324.00
2022-09-20T08:50:17.728Z,1340.00
2022-09-20T08:51:06.232Z,1340.00
2022-09-20T08:52:10.444Z,1356.00
2022-09-20T08:53:06.198Z,1352.00
2022-09-20T08:54:05.171Z,1364.00
2022-09-20T08:55:07.454Z,1372.00
2022-09-20T08:56:05.139Z,1380.00
2022-09-20T08:57:05.126Z,1392.00
2022-09-20T08:58:08.878Z,1396.00
2022-09-20T08:59:05.099Z,1404.00
2022-09-20T09:00:05.231Z,1412.00
2022-09-20T09:01:05.111Z,1420.00
2022-09-20T09:02:05.122Z,1432.00
2022-09-20T09:03:05.074Z,1440.00
2022-09-20T09:04:05.091Z,1448.00
2022-09-20T09:05:05.023Z,1460.00
2022-09-20T09:06:10.345Z,1468.00
2022-09-20T09:07:06.026Z,1476.00
2022-09-20T09:08:05.138Z,1492.00
2022-09-20T09:09:04.999Z,1500.00
2022-09-20T09:10:04.995Z,1512.00
2022-09-20T09:11:04.963Z,1516.00
2022-09-20T09:12:04.992Z,1528.00
2022-09-20T09:13:04.966Z,1528.00
2022-09-20T09:14:04.932Z,1536.00
2022-09-20T09:15:04.943Z,1540.00
2022-09-20T09:16:04.912Z,1544.00
2022-09-20T09:17:04.966Z,1552.00
2022-09-20T09:18:05.043Z,1556.00
2022-09-20T09:19:04.920Z,1564.00
2022-09-20T09:20:04.873Z,1564.00
2022-09-20T09:21:04.897Z,1568.00
2022-09-20T09:22:04.855Z,1572.00
2022-09-20T09:23:04.863Z,1572.00
2022-09-20T09:24:04.825Z,1576.00
2022-09-20T09:25:04.855Z,1584.00
2022-09-20T09:26:04.803Z,1592.00
2022-09-20T09:27:04.783Z,1608.00
2022-09-20T09:28:04.794Z,1600.00
2022-09-20T09:29:04.779Z,1608.00
2022-09-20T09:30:04.765Z,1620.00
2022-09-20T09:31:04.743Z,1656.00
2022-09-20T09:32:04.828Z,1692.00
2022-09-20T09:33:04.724Z,1736.00
2022-09-20T09:34:04.799Z,1728.00
2022-09-20T09:35:04.703Z,1492.00
2022-09-20T09:36:04.696Z,1744.00
2022-09-20T09:37:04.683Z,1796.00
2022-09-20T09:38:04.683Z,1820.00
2022-09-20T09:39:04.721Z,1844.00
2022-09-20T09:40:04.711Z,1864.00
2022-09-20T09:41:04.645Z,1952.00
2022-09-20T09:42:04.623Z,2000.00
2022-09-20T09:43:04.618Z,2008.00
2022-09-20T09:44:04.620Z,2024.00
2022-09-20T09:45:04.595Z,2048.00
2022-09-20T09:46:04.632Z,2116.00
2022-09-20T09:47:04.565Z,2144.00
2022-09-20T09:48:04.563Z,2116.00
2022-09-20T09:49:04.827Z,2080.00
2022-09-20T09:50:09.500Z,2080.00
2022-09-20T09:51:05.540Z,2088.00
2022-09-20T09:52:04.519Z,2116.00
2022-09-20T09:53:04.505Z,2160.00
2022-09-20T09:54:04.547Z,2280.00
2022-09-20T09:55:05.870Z,2444.00
2022-09-20T09:56:04.468Z,2672.00
2022-09-20T09:57:04.440Z,2280.00
2022-09-20T09:58:04.456Z,1964.00
2022-09-20T09:59:04.428Z,2856.00
2022-09-20T10:00:09.374Z,3168.00
2022-09-20T10:01:05.459Z,3188.00
2022-09-20T10:02:04.459Z,3232.00
2022-09-20T10:03:04.377Z,3232.00
2022-09-20T10:04:04.367Z,3208.00
2022-09-20T10:05:04.389Z,2988.00
2022-09-20T10:06:04.368Z,3416.00
2022-09-20T10:07:04.360Z,3276.00
2022-09-20T10:08:04.340Z,3192.00
2022-09-20T10:09:04.307Z,3052.00
2022-09-20T10:10:04.307Z,2968.00
2022-09-20T10:11:04.336Z,2808.00
2022-09-20T10:12:04.288Z,2016.00
2022-09-20T10:13:04.268Z,1764.00
2022-09-20T10:14:04.267Z,1736.00
2022-09-20T10:15:04.253Z,1720.00
2022-09-20T10:16:04.239Z,1680.00
2022-09-20T10:17:04.244Z,1716.00
2022-09-20T10:18:04.207Z,1780.00
2022-09-20T10:19:04.208Z,1776.00
2022-09-20T10:20:04.194Z,1744.00
2022-09-20T10:21:04.224Z,1744.00
2022-09-20T10:22:04.188Z,1740.00
2022-09-20T10:23:39.417Z,1812.00
2022-09-20T10:24:05.231Z,2904.00
2022-09-20T10:25:04.140Z,2884.00
2022-09-20T10:26:04.132Z,2720.00
2022-09-20T10:27:04.154Z,2876.00
2022-09-20T10:28:04.148Z,2720.00
2022-09-20T10:29:04.173Z,2796.00
2022-09-20T10:30:04.148Z,2740.00
2022-09-20T10:31:04.233Z,2772.00
2022-09-20T10:32:04.142Z,2804.00
2022-09-20T10:33:04.141Z,2812.00
2022-09-20T10:34:04.201Z,2768.00
2022-09-20T10:35:04.141Z,2692.00
2022-09-20T10:36:04.238Z,2632.00
2022-09-20T10:37:04.202Z,2336.00
2022-09-20T10:38:04.287Z,1524.00
2022-09-20T10:39:04.273Z,1472.00
2022-09-20T10:40:04.283Z,1468.00
2022-09-20T10:41:04.204Z,1432.00
2022-09-20T10:42:04.303Z,1416.00
2022-09-20T10:43:03.944Z,1444.00
2022-09-20T10:44:05.647Z,1484.00
2022-09-20T10:45:03.914Z,1516.00
2022-09-20T10:46:27.957Z,1556.00
2022-09-20T10:47:05.140Z,1620.00
2022-09-20T10:48:03.873Z,1740.00
2022-09-20T10:49:03.874Z,1916.00
2022-09-20T10:50:03.846Z,2024.00
2022-09-20T10:51:03.844Z,2740.00
2022-09-20T10:52:03.816Z,3276.00
2022-09-20T10:53:03.845Z,3308.00
2022-09-20T10:54:03.797Z,2388.00
2022-09-20T10:55:03.801Z,2864.00
2022-09-20T10:56:03.780Z,2464.00
2022-09-20T10:57:03.789Z,2404.00
2022-09-20T10:58:03.796Z,2320.00
2022-09-20T10:59:03.757Z,2244.00
2022-09-20T11:00:03.748Z,2252.00
2022-09-20T11:01:03.802Z,2264.00
2022-09-20T11:02:03.781Z,3380.00
2022-09-20T11:03:03.730Z,3272.00
2022-09-20T11:04:03.688Z,3200.00
2022-09-20T11:05:03.684Z,3176.00
2022-09-20T11:06:03.657Z,3144.00
2022-09-20T11:07:03.678Z,3068.00
2022-09-20T11:08:03.676Z,3016.00
2022-09-20T11:09:03.648Z,2936.00
2022-09-20T11:10:03.629Z,1988.00
2022-09-20T11:11:03.659Z,2736.00
2022-09-20T11:12:03.600Z,1496.00
2022-09-20T11:13:03.615Z,1372.00
2022-09-20T11:14:03.578Z,1940.00
2022-09-20T11:15:03.575Z,2476.00
2022-09-20T11:16:03.569Z,2388.00
2022-09-20T11:17:03.561Z,1972.00
2022-09-20T11:18:03.529Z,1652.00
2022-09-20T11:19:03.636Z,1012.00
2022-09-20T11:20:07.192Z,884.00
2022-09-20T11:21:03.517Z,812.00
2022-09-20T11:22:03.490Z,748.00
2022-09-20T11:23:03.481Z,692.00
2022-09-20T11:24:03.480Z,636.00
2022-09-20T11:25:03.457Z,588.00
2022-09-20T11:26:03.439Z,548.00
2022-09-20T11:27:03.459Z,520.00
2022-09-20T11:28:03.423Z,516.00
2022-09-20T11:29:03.434Z,532.00
2022-09-20T11:30:03.389Z,568.00
2022-09-20T11:31:03.410Z,628.00
2022-09-20T11:32:03.431Z,704.00
2022-09-20T11:33:03.361Z,776.00
2022-09-20T11:34:03.358Z,860.00
2022-09-20T11:35:03.342Z,972.00
2022-09-20T11:36:03.322Z,1084.00
2022-09-20T11:37:03.460Z,1208.00
2022-09-20T11:38:03.291Z,1320.00
2022-09-20T11:39:03.337Z,1416.00
2022-09-20T11:40:03.353Z,1476.00
2022-09-20T11:41:03.287Z,1520.00
2022-09-20T11:42:03.263Z,1516.00
2022-09-20T11:43:03.258Z,1500.00
2022-09-20T11:44:03.230Z,1528.00
2022-09-20T11:45:03.243Z,1612.00
2022-09-20T11:46:03.293Z,1704.00
2022-09-20T11:47:03.286Z,1800.00
2022-09-20T11:48:03.181Z,1864.00
2022-09-20T11:49:04.111Z,1904.00
2022-09-20T11:50:03.230Z,2000.00
2022-09-20T11:51:03.166Z,2116.00
2022-09-20T11:52:03.234Z,2268.00
2022-09-20T11:53:03.202Z,2288.00
2022-09-20T11:54:03.182Z,2396.00
2022-09-20T11:55:03.233Z,3652.00
2022-09-20T11:56:03.174Z,3484.00
2022-09-20T11:57:03.223Z,2496.00
2022-09-20T11:58:03.197Z,1948.00
2022-09-20T11:59:03.206Z,1824.00
2022-09-20T12:00:03.142Z,1764.00
2022-09-20T12:01:03.206Z,1752.00
2022-09-20T12:02:03.335Z,1772.00
2022-09-20T12:03:03.430Z,1780.00
2022-09-20T12:04:31.813Z,1800.00
2022-09-20T12:05:03.994Z,1788.00
2022-09-20T12:06:03.026Z,1868.00
2022-09-20T12:07:08.331Z,1940.00
2022-09-20T12:08:03.950Z,1980.00
2022-09-20T12:09:02.954Z,2044.00
2022-09-20T12:10:02.954Z,2064.00
2022-09-20T12:11:02.947Z,2112.00
2022-09-20T12:12:02.979Z,2212.00
2022-09-20T12:13:03.038Z,2296.00
2022-09-20T12:14:02.902Z,2276.00
2022-09-20T12:15:02.930Z,2200.00
2022-09-20T12:16:02.890Z,2192.00
2022-09-20T12:17:02.929Z,2256.00
2022-09-20T12:18:08.284Z,3708.00
2022-09-20T12:19:03.847Z,2424.00
2022-09-20T12:20:02.818Z,2524.00
2022-09-20T12:21:02.820Z,2824.00
2022-09-20T12:22:02.818Z,2828.00
2022-09-20T12:23:02.803Z,2968.00
2022-09-20T12:24:02.768Z,2768.00
2022-09-20T12:25:02.771Z,2880.00
2022-09-20T12:26:02.759Z,3520.00
2022-09-20T12:27:02.746Z,2472.00
2022-09-20T12:28:02.770Z,2236.00
2022-09-20T12:29:02.929Z,2272.00
2022-09-20T12:30:02.706Z,2616.00
2022-09-20T12:31:02.707Z,2496.00
2022-09-20T12:32:02.714Z,2504.00
2022-09-20T12:33:02.691Z,2492.00
2022-09-20T12:34:02.681Z,2460.00
2022-09-20T12:35:02.662Z,2564.00
2022-09-20T12:36:02.680Z,3068.00
2022-09-20T12:37:02.635Z,2648.00
2022-09-20T12:38:02.675Z,2152.00
2022-09-20T12:39:02.690Z,2008.00
2022-09-20T12:40:02.893Z,1948.00
2022-09-20T12:41:02.720Z,1836.00
2022-09-20T12:42:02.751Z,3076.00